Dauphin Airport, Manitoba

Past 24 Hour Conditions

Date / Time
(CDT)
Conditions Temp
(°F)
Humidity
(%)
Dew Point
(°F)
Wind
(mph)
Pressure
(inches)
Visibility
(miles)
22 October 2014
7:00 Partly Cloudy 38   94 37 NW 2 29.6 10
6:00 Clear 38   93 37 WNW 3 29.6 10
5:00 Clear 39 92 37 calm 29.6 10
4:00 Clear 40 91 38 W 2 29.6 10
3:00 Clear 44 86 40 calm 29.6 10
2:00 Clear 45 87 41 NE 7 29.6 10
1:00 Mostly Cloudy 50 78 43 ESE 7 29.6 10
00:00 Mainly Clear 51 73 43 SE 14 gust 20 29.6 10
21 October 2014
23:00 Mainly Clear 53 72 44 SE 10 29.6 10
22:00 Clear 48 80 42 calm 29.7 10
21:00 Clear 53 70 43 ESE 10 29.7 10
20:00 Clear 54 66 43 ESE 11 29.7 10
19:00 Clear 57 59 43 SE 14 29.7 10
18:00 Sunny 60 54 43 SE 15 gust 24 29.7 10
17:00 Sunny 63 49 44 SE 18 gust 24 29.7 10
16:00 Sunny 64 49 45 ESE 15 29.7 10
15:00 Sunny 65 49 46 ESE 18 29.7 10
14:00 Sunny 70   34 41 SSE 11 29.7 10
13:00 Sunny 69 33 40 SE 5 gust 17 29.8 10
12:00 Sunny 68 34 39 SSW 16 gust 28 29.8 10
11:00 Sunny 65 37 38 S 9 gust 17 29.8 10
10:00 Sunny 61 44 39 WNW 3 29.8 10
9:00 Sunny 58 49 39 WNW 3 29.8 10
8:00 Clear 55 53 39 SSW 3 29.8 10
7:00 Clear 52 63 40 SE 6 gust 17 29.9 10
N/A Not available
↑ Highest temperature
↓ Lowest temperature

If you require additional historical weather information, please visit Climate Data Online.

Date modified: